Terminal Aerodrome Forecast
Issued by NWS

Home | Current Version | Previous Version | Text Only | Print | Product List | Glossary On
Versions: 1 2 3 4 5 6 7 8 9 10 11 12 13 14 15 16 17 18 19 20
000
FTUS43 KDLH 242100 AAA
TAFHIB
TAF AMD
KHIB 242136Z 2422/2518 00000KT P6SM -SN OVC009
     FM250500 21005KT 4SM -SN BR OVC007
     FM250900 23006KT P6SM -FZDZ OVC013
     FM251700 26003KT P6SM OVC017=

USA.gov is the U.S. government's official web portal to all federal, state and local government web resources and services.